Time;durP1;ratioP1;P1;durP2;ratioP2;P2;SDS_P1;SDS_P2;PMS_P1;PMS_P2;Temp;Humidity;BMP_temperature;BMP_pressure;BME280_temperature;BME280_humidity;BME280_pressure;Samples;Min_cycle;Max_cycle;Signal;HPM_P1;HPM_P2
2021/12/14 00:01:10;;;;;;;;;;;9.30;99.90;;;;;;5110334;28;20031;-77
2021/12/14 00:03:40;;;;;;;15.23;9.65;;;9.20;99.90;;;;;;5094920;28;19920;-76
2021/12/14 00:06:07;;;;;;;14.43;9.38;;;9.20;99.90;;;;;;5105539;28;20419;-76
2021/12/14 00:08:37;;;;;;;15.25;10.32;;;9.30;99.90;;;;;;5095064;28;20036;-76
2021/12/14 00:16:07;;;;;;;16.38;9.52;;;9.30;99.90;;;;;;5110268;28;20050;-76
2021/12/14 00:18:34;;;;;;;15.68;10.13;;;9.30;99.90;;;;;;5094666;28;20036;-77
2021/12/14 00:21:28;;;;;;;14.38;10.13;;;9.30;99.90;;;;;;5094031;28;20074;-76
2021/12/14 00:24:10;;;;;;;15.05;9.75;;;9.20;99.90;;;;;;5109607;28;20023;-76
2021/12/14 00:26:52;;;;;;;15.52;9.23;;;9.20;99.90;;;;;;5094064;28;20050;-76
2021/12/14 00:29:23;;;;;;;17.10;9.95;;;9.10;99.90;;;;;;5093789;28;20036;-76
2021/12/14 00:31:50;;;;;;;14.15;9.40;;;9.20;99.90;;;;;;5096027;28;20039;-76
2021/12/14 00:34:23;;;;;;;16.60;11.05;;;9.20;99.90;;;;;;5110035;28;20043;-76
2021/12/14 00:36:50;;;;;;;16.25;10.00;;;9.10;99.90;;;;;;5114231;28;20044;-77
2021/12/14 00:39:16;;;;;;;13.95;9.07;;;9.10;99.90;;;;;;5097698;28;20031;-76
2021/12/14 00:41:42;;;;;;;15.20;9.90;;;9.10;99.90;;;;;;5098799;28;20031;-76
2021/12/14 00:44:08;;;;;;;14.35;10.40;;;9.10;99.90;;;;;;5093901;28;20031;-76
2021/12/14 00:46:36;;;;;;;15.55;9.32;;;9.00;99.90;;;;;;5106782;28;20142;-76
2021/12/14 00:49:04;;;;;;;14.27;7.93;;;9.10;99.90;;;;;;5114158;28;20088;-76
2021/12/14 00:51:30;;;;;;;15.98;9.50;;;9.20;99.90;;;;;;5115425;28;20040;-77
2021/12/14 00:54:02;;;;;;;15.23;10.13;;;9.10;99.90;;;;;;5097450;28;20038;-77
2021/12/14 00:56:28;;;;;;;14.73;9.13;;;9.20;99.90;;;;;;5097683;28;20031;-76
2021/12/14 00:58:54;;;;;;;16.15;9.25;;;9.10;99.90;;;;;;5114910;27;20036;-77
2021/12/14 01:01:32;;;;;;;14.63;8.43;;;9.20;99.90;;;;;;5113156;28;20430;-77
2021/12/14 01:04:03;;;;;;;15.65;9.90;;;9.20;99.90;;;;;;5113003;28;20035;-76
2021/12/14 01:06:32;;;;;;;14.93;8.45;;;9.10;99.90;;;;;;5091174;28;20429;-77
2021/12/14 01:09:01;;;;;;;16.83;10.10;;;9.20;99.90;;;;;;5098377;28;20554;-77
2021/12/14 01:11:37;;;;;;;13.75;9.27;;;9.20;99.90;;;;;;5114148;28;20047;-76
2021/12/14 01:14:19;;;;;;;16.05;10.27;;;9.20;99.90;;;;;;5096613;28;20066;-77
2021/12/14 01:17:06;;;;;;;14.98;9.82;;;9.20;99.90;;;;;;5097045;28;20067;-77
2021/12/14 01:19:33;;;;;;;16.48;10.02;;;9.20;99.90;;;;;;5098197;28;20074;-77
2021/12/14 01:27:01;;;;;;;17.23;11.15;;;9.10;99.90;;;;;;5108693;28;20055;-78
2021/12/14 01:29:28;;;;;;;15.77;9.05;;;9.10;99.90;;;;;;5112329;28;20086;-77
2021/12/14 01:31:59;;;;;;;16.42;10.57;;;9.10;99.90;;;;;;5097648;28;20164;-77
2021/12/14 01:34:24;;;;;;;17.88;12.07;;;9.10;99.90;;;;;;5096780;28;20051;-76
2021/12/14 01:36:55;;;;;;;16.05;11.07;;;9.10;99.90;;;;;;5097406;28;20035;-77
2021/12/14 01:42:18;;;;;;;17.73;11.77;;;9.10;99.90;;;;;;5114339;28;20124;-77
2021/12/14 01:44:48;;;;;;;15.50;10.52;;;9.10;99.90;;;;;;5095173;28;20488;-76
2021/12/14 01:47:33;;;;;;;15.27;11.35;;;9.10;99.90;;;;;;5114491;28;20032;-76
2021/12/14 01:49:59;;;;;;;18.40;11.65;;;9.10;99.90;;;;;;5112489;28;20046;-77
2021/12/14 01:52:31;;;;;;;15.77;10.60;;;9.00;99.90;;;;;;5096981;28;20088;-77
2021/12/14 01:55:19;;;;;;;17.50;10.57;;;9.10;99.90;;;;;;5096579;28;20050;-77
2021/12/14 01:57:46;;;;;;;18.95;12.18;;;9.10;99.90;;;;;;5113384;28;20048;-77
2021/12/14 02:00:33;;;;;;;16.20;11.15;;;9.10;99.90;;;;;;5094690;28;20061;-77
2021/12/14 02:03:06;;;;;;;17.13;11.35;;;9.20;99.90;;;;;;5096363;28;20093;-77
2021/12/14 02:05:36;;;;;;;;;;;9.20;99.90;;;;;;5114262;28;20061;-77
2021/12/14 02:08:11;;;;;;;16.85;10.95;;;9.20;99.90;;;;;;5113073;28;19916;-77
2021/12/14 02:10:38;;;;;;;19.40;12.70;;;9.20;99.90;;;;;;5095835;28;20104;-77
2021/12/14 02:13:05;;;;;;;18.80;12.20;;;9.10;99.90;;;;;;5095951;28;20038;-77
2021/12/14 02:15:42;;;;;;;18.98;12.73;;;9.10;99.90;;;;;;5095849;28;20062;-77
2021/12/14 02:18:15;;;;;;;20.05;11.35;;;9.10;99.90;;;;;;5113047;28;20036;-76
2021/12/14 02:20:52;;;;;;;19.27;12.88;;;9.10;99.90;;;;;;5108579;28;20077;-76
2021/12/14 02:23:20;;;;;;;20.48;13.70;;;9.10;99.90;;;;;;5112274;28;20032;-77
2021/12/14 02:25:46;;;;;;;19.85;13.27;;;9.10;99.90;;;;;;5111450;28;20040;-77
2021/12/14 02:28:15;;;;;;;20.45;13.68;;;9.10;99.90;;;;;;5096187;28;20035;-77
2021/12/14 02:30:42;;;;;;;19.63;13.15;;;9.10;99.90;;;;;;5111053;28;20368;-77
2021/12/14 02:33:24;;;;;;;21.08;14.80;;;9.10;99.90;;;;;;5113365;28;20042;-77
2021/12/14 02:35:52;;;;;;;19.15;13.65;;;8.90;99.90;;;;;;5095119;28;20061;-77
2021/12/14 02:38:18;;;;;;;20.70;14.73;;;8.90;99.90;;;;;;5113220;28;20039;-77
2021/12/14 02:41:00;;;;;;;18.17;13.00;;;8.90;99.90;;;;;;5123075;27;20032;-77
2021/12/14 02:43:50;;;;;;;20.17;13.63;;;8.90;99.90;;;;;;5112669;28;20039;-77
2021/12/14 02:46:17;;;;;;;20.70;13.60;;;9.10;99.90;;;;;;5110636;28;20340;-77
2021/12/14 02:48:48;;;;;;;19.50;12.75;;;9.00;99.90;;;;;;5094935;28;20039;-77
2021/12/14 02:51:36;;;;;;;20.57;13.93;;;9.10;99.90;;;;;;5096543;28;20384;-77
2021/12/14 02:54:11;;;;;;;20.13;13.32;;;9.10;99.90;;;;;;5092311;28;20052;-77
2021/12/14 02:56:40;;;;;;;20.13;13.63;;;9.10;99.90;;;;;;5113193;28;20067;-77
2021/12/14 02:59:16;;;;;;;21.38;13.98;;;9.10;99.90;;;;;;5109720;28;20476;-77
2021/12/14 03:01:43;;;;;;;20.50;14.95;;;9.10;99.90;;;;;;5112898;28;20028;-77
2021/12/14 03:04:11;;;;;;;19.02;12.68;;;9.00;99.90;;;;;;5110354;28;20031;-77
2021/12/14 03:06:47;;;;;;;22.70;15.07;;;9.00;99.90;;;;;;5096199;28;20036;-77
2021/12/14 03:09:52;;;;;;;21.13;14.38;;;8.90;99.90;;;;;;5092284;28;20028;-77
2021/12/14 03:12:42;;;;;;;21.58;13.75;;;8.90;99.90;;;;;;5092929;28;20039;-77
2021/12/14 03:15:42;;;;;;;21.65;14.45;;;9.00;99.90;;;;;;5110875;28;20495;-77
2021/12/14 03:18:10;;;;;;;21.13;13.50;;;9.00;99.90;;;;;;5106509;28;20047;-78
2021/12/14 03:20:50;;;;;;;19.55;12.27;;;8.90;99.90;;;;;;5112561;28;20125;-77
2021/12/14 03:23:21;;;;;;;21.08;14.48;;;9.00;99.90;;;;;;5094672;28;20028;-77
2021/12/14 03:25:52;;;;;;;21.55;13.48;;;8.90;99.90;;;;;;5112451;28;20114;-77
2021/12/14 03:28:19;;;;;;;21.38;14.45;;;8.90;99.90;;;;;;5111107;28;20414;-77
2021/12/14 03:31:05;;;;;;;20.23;13.80;;;8.80;99.90;;;;;;5094695;28;20119;-77
2021/12/14 03:33:36;;;;;;;20.52;13.45;;;8.80;99.90;;;;;;5111608;28;20047;-77
2021/12/14 03:36:09;;;;;;;21.67;14.00;;;8.80;99.90;;;;;;5110441;28;20060;-77
2021/12/14 03:38:55;;;;;;;20.10;14.02;;;8.80;99.90;;;;;;5094335;28;20036;-77
2021/12/14 03:41:26;;;;;;;22.70;15.20;;;8.80;99.90;;;;;;5110076;28;20023;-77
2021/12/14 03:43:58;;;;;;;22.02;15.38;;;8.90;99.90;;;;;;5112166;28;20035;-77
2021/12/14 03:46:25;;;;;;;20.35;12.80;;;8.80;99.90;;;;;;5092572;28;20118;-77
2021/12/14 03:48:51;;;;;;;22.88;13.88;;;8.80;99.90;;;;;;5110079;28;20058;-77
2021/12/14 03:51:22;;;;;;;21.70;13.77;;;8.80;99.90;;;;;;5094099;28;20027;-77
2021/12/14 03:53:50;;;;;;;22.15;14.27;;;8.80;99.90;;;;;;5095256;28;20043;-77
2021/12/14 03:56:16;;;;;;;22.05;15.00;;;8.80;99.90;;;;;;5110213;28;20109;-77
2021/12/14 03:58:42;;;;;;;25.38;15.45;;;8.90;99.90;;;;;;5095143;28;20432;-77
2021/12/14 04:01:24;;;;;;;25.45;15.35;;;8.80;99.90;;;;;;5109567;28;20043;-77
2021/12/14 04:03:54;;;;;;;22.80;15.40;;;8.80;99.90;;;;;;5095201;28;20036;-77
2021/12/14 04:06:20;;;;;;;25.85;16.98;;;8.80;99.90;;;;;;5109317;28;20126;-77
2021/12/14 04:08:46;;;;;;;22.98;15.52;;;8.70;99.90;;;;;;5108169;28;20126;-77
2021/12/14 04:11:13;;;;;;;23.00;14.10;;;8.90;99.90;;;;;;5126576;27;20583;-77
2021/12/14 04:13:44;;;;;;;28.00;16.17;;;8.90;99.90;;;;;;5091752;28;20089;-77
2021/12/14 04:16:15;;;;;;;23.92;13.45;;;9.00;99.90;;;;;;5084086;28;20394;-77
2021/12/14 04:18:41;;;;;;;24.50;15.50;;;9.10;99.90;;;;;;5086300;28;20399;-77
2021/12/14 04:21:07;;;;;;;23.98;15.90;;;9.00;99.90;;;;;;5089957;28;20040;-77
2021/12/14 04:23:37;;;;;;;26.23;16.30;;;9.00;99.90;;;;;;5109599;28;20047;-77
2021/12/14 04:26:05;;;;;;;20.75;13.32;;;9.00;99.90;;;;;;5106937;28;20042;-77
2021/12/14 04:28:37;;;;;;;25.77;15.80;;;9.00;99.90;;;;;;5110599;28;20155;-76
2021/12/14 04:31:02;;;;;;;26.25;16.20;;;8.90;99.90;;;;;;5091652;28;20047;-77
2021/12/14 04:33:31;;;;;;;27.42;17.27;;;9.00;99.90;;;;;;5109785;28;20487;-77
2021/12/14 04:35:58;;;;;;;28.70;18.25;;;8.80;99.90;;;;;;5092182;28;20528;-77
2021/12/14 04:38:28;;;;;;;26.63;16.38;;;8.90;99.90;;;;;;5093460;28;20522;-77
2021/12/14 04:52:11;;;;;;;25.80;16.50;;;8.80;99.90;;;;;;5108730;28;20044;-77
2021/12/14 04:55:04;;;;;;;28.17;16.48;;;8.80;99.90;;;;;;5092474;28;20035;-77
2021/12/14 04:57:29;;;;;;;;;;;8.80;99.90;;;;;;5085643;28;20047;-77
2021/12/14 05:00:01;;;;;;;26.70;15.60;;;8.80;99.90;;;;;;5090257;28;19923;-77
2021/12/14 05:02:32;;;;;;;26.08;17.13;;;8.90;99.90;;;;;;5092659;28;20032;-77
2021/12/14 05:05:00;;;;;;;27.20;16.90;;;8.90;99.90;;;;;;5110313;28;20059;-77
2021/12/14 05:07:44;;;;;;;25.67;16.67;;;8.80;99.90;;;;;;5109673;28;20601;-77
2021/12/14 05:10:16;;;;;;;23.63;14.60;;;8.90;99.90;;;;;;5107815;28;20035;-77
2021/12/14 05:12:42;;;;;;;29.10;19.15;;;9.00;99.90;;;;;;5107645;28;20388;-77
2021/12/14 05:15:11;;;;;;;26.52;17.40;;;8.80;99.90;;;;;;5109115;28;20038;-78
2021/12/14 05:17:39;;;;;;;27.85;17.92;;;8.80;99.90;;;;;;5139774;27;20640;-77
2021/12/14 05:20:09;;;;;;;28.73;17.42;;;8.70;99.90;;;;;;5115077;28;20430;-77
2021/12/14 05:22:38;;;;;;;29.73;19.88;;;8.80;99.90;;;;;;5113955;28;20169;-77
2021/12/14 05:25:10;;;;;;;26.23;16.63;;;8.80;99.90;;;;;;5114698;28;20027;-77
2021/12/14 05:27:46;;;;;;;26.58;17.75;;;8.80;99.90;;;;;;5095940;28;20036;-77
2021/12/14 05:30:24;;;;;;;24.73;16.77;;;8.90;99.90;;;;;;5112731;28;20047;-77
2021/12/14 05:32:58;;;;;;;29.02;19.40;;;8.90;99.90;;;;;;5127488;27;20120;-76
2021/12/14 05:35:24;;;;;;;27.05;17.98;;;8.80;99.90;;;;;;5093315;28;20052;-76
2021/12/14 05:37:53;;;;;;;26.17;16.67;;;8.90;99.90;;;;;;5127587;27;20040;-77
2021/12/14 05:40:43;;;;;;;26.73;17.20;;;8.80;99.90;;;;;;5113010;28;20039;-77
2021/12/14 05:43:15;;;;;;;28.33;18.75;;;8.90;99.90;;;;;;5113666;28;20035;-77
2021/12/14 05:45:44;;;;;;;28.08;19.02;;;8.80;99.90;;;;;;5092810;28;20043;-77
2021/12/14 05:48:16;;;;;;;25.38;16.17;;;8.70;99.90;;;;;;5096073;28;20088;-77
2021/12/14 05:50:45;;;;;;;26.23;16.15;;;8.90;99.90;;;;;;5109689;28;20038;-77
2021/12/14 05:53:37;;;;;;;27.63;18.13;;;8.90;99.90;;;;;;5143179;27;20414;-77
2021/12/14 05:56:13;;;;;;;28.40;17.98;;;8.90;99.90;;;;;;5094081;28;20036;-77
2021/12/14 05:58:39;;;;;;;27.92;17.35;;;8.80;99.90;;;;;;5095026;28;20047;-77
2021/12/14 06:01:08;;;;;;;28.33;19.17;;;8.70;99.90;;;;;;5095085;28;20140;-77
2021/12/14 06:03:39;;;;;;;29.90;18.83;;;8.70;99.90;;;;;;5111720;28;20035;-77
2021/12/14 06:06:13;;;;;;;26.33;17.15;;;8.80;99.90;;;;;;5110558;28;20046;-77
2021/12/14 06:08:39;;;;;;;28.05;17.65;;;8.80;99.90;;;;;;5110722;28;20039;-77
2021/12/14 06:11:05;;;;;;;25.70;15.82;;;8.80;99.90;;;;;;5096356;28;20048;-77
2021/12/14 06:13:36;;;;;;;30.10;18.95;;;8.90;99.90;;;;;;5095320;28;20048;-77
2021/12/14 06:16:02;;;;;;;32.90;22.42;;;8.90;99.90;;;;;;5111681;27;20100;-78
2021/12/14 06:18:28;;;;;;;30.20;19.45;;;8.90;99.90;;;;;;5113900;28;20495;-77
2021/12/14 06:20:54;;;;;;;29.08;19.55;;;8.80;99.90;;;;;;5121941;27;20036;-77
2021/12/14 06:23:28;;;;;;;28.77;18.83;;;9.00;99.90;;;;;;5112540;28;20046;-77
2021/12/14 06:25:55;;;;;;;28.98;18.20;;;8.80;99.90;;;;;;5111012;28;20507;-77
2021/12/14 06:28:26;;;;;;;30.90;20.30;;;8.80;99.90;;;;;;5095513;28;20093;-77
2021/12/14 06:30:52;;;;;;;32.70;21.20;;;8.80;99.90;;;;;;5108376;28;20040;-77
2021/12/14 06:33:19;;;;;;;31.60;19.70;;;8.80;99.90;;;;;;5112448;28;20119;-77
2021/12/14 06:35:49;;;;;;;35.10;22.95;;;8.80;99.90;;;;;;5110029;28;20516;-77
2021/12/14 06:38:31;;;;;;;30.23;19.75;;;8.60;99.90;;;;;;5110229;28;20032;-77
2021/12/14 06:41:08;;;;;;;30.40;20.77;;;8.80;99.90;;;;;;5095583;28;20027;-78
2021/12/14 06:43:42;;;;;;;32.50;22.23;;;8.80;99.90;;;;;;5110761;28;20126;-79
2021/12/14 06:46:12;;;;;;;30.05;18.27;;;8.70;99.90;;;;;;5094506;28;20046;-78
2021/12/14 06:48:41;;;;;;;32.17;22.13;;;8.80;99.90;;;;;;5092495;28;20085;-77
2021/12/14 06:51:24;;;;;;;33.15;22.35;;;8.80;99.90;;;;;;5108900;28;20035;-78
2021/12/14 06:53:52;;;;;;;;;;;8.70;99.90;;;;;;5111910;28;20465;-78
2021/12/14 06:56:22;;;;;;;34.30;22.15;;;8.80;99.90;;;;;;5107988;28;20024;-78
2021/12/14 06:58:52;;;;;;;34.58;22.58;;;8.70;99.90;;;;;;5094937;28;20044;-77
2021/12/14 07:01:22;;;;;;;33.35;21.08;;;8.70;99.90;;;;;;5120531;27;20034;-77
2021/12/14 07:03:53;;;;;;;29.45;17.27;;;8.70;99.90;;;;;;5107484;28;20071;-77
2021/12/14 07:06:31;;;;;;;33.65;22.58;;;8.80;99.90;;;;;;5090869;28;20066;-77
2021/12/14 07:09:21;;;;;;;33.33;22.08;;;8.80;99.90;;;;;;5111788;28;20555;-77
2021/12/14 07:11:55;;;;;;;33.42;22.67;;;8.80;99.90;;;;;;5093378;28;20047;-77
2021/12/14 07:14:27;;;;;;;33.80;22.92;;;8.80;99.90;;;;;;5092656;28;20048;-77
2021/12/14 07:16:55;;;;;;;33.22;22.35;;;8.80;99.90;;;;;;5093376;28;20097;-77
2021/12/14 07:19:52;;;;;;;33.35;21.85;;;8.90;99.90;;;;;;5107207;28;20421;-77
2021/12/14 07:22:32;;;;;;;29.35;16.48;;;8.70;99.90;;;;;;5108015;28;20411;-77
2021/12/14 07:25:02;;;;;;;32.47;21.20;;;8.70;99.90;;;;;;5107171;28;20541;-77
2021/12/14 07:27:44;;;;;;;36.10;23.63;;;8.80;99.90;;;;;;5093169;28;20492;-78
2021/12/14 07:30:32;;;;;;;32.70;20.85;;;8.80;99.90;;;;;;5110476;28;20126;-77
2021/12/14 07:33:33;;;;;;;33.00;21.35;;;8.70;99.90;;;;;;5108755;28;20035;-78
2021/12/14 07:36:06;;;;;;;31.08;18.42;;;8.70;99.90;;;;;;5074532;28;20051;-77
2021/12/14 07:38:40;;;;;;;34.72;23.75;;;8.70;99.90;;;;;;5107722;28;20074;-77
2021/12/14 07:41:29;;;;;;;34.72;21.58;;;8.80;99.90;;;;;;5091289;28;20023;-78
2021/12/14 07:44:17;;;;;;;35.90;23.60;;;8.80;99.90;;;;;;5094838;28;20076;-78
2021/12/14 07:46:54;;;;;;;40.13;26.38;;;8.80;99.90;;;;;;5110718;28;20475;-77
2021/12/14 07:49:25;;;;;;;34.15;22.42;;;8.60;99.90;;;;;;5095060;28;20043;-78
2021/12/14 07:51:55;;;;;;;36.67;23.47;;;8.60;99.90;;;;;;5093776;28;20039;-77
2021/12/14 07:54:26;;;;;;;34.50;22.48;;;8.70;99.90;;;;;;5094996;28;20051;-77
2021/12/14 07:57:14;;;;;;;34.85;22.85;;;8.80;99.90;;;;;;5093386;28;20480;-77
2021/12/14 07:59:49;;;;;;;35.42;24.33;;;8.80;99.90;;;;;;5094419;28;20115;-78
2021/12/14 08:02:20;;;;;;;36.83;23.65;;;8.80;99.90;;;;;;5088969;28;20032;-78
2021/12/14 08:04:53;;;;;;;36.03;23.45;;;8.70;99.90;;;;;;5093592;28;20036;-78
2021/12/14 08:07:25;;;;;;;35.60;23.95;;;8.80;99.90;;;;;;5145082;27;20495;-78
2021/12/14 08:09:52;;;;;;;35.47;24.05;;;8.70;99.90;;;;;;5094509;28;20077;-77
2021/12/14 08:12:27;;;;;;;34.72;24.45;;;8.80;99.90;;;;;;5094312;28;20031;-78
2021/12/14 08:15:11;;;;;;;37.50;24.95;;;8.80;99.90;;;;;;5107359;28;20081;-77
2021/12/14 08:17:38;;;;;;;32.22;19.70;;;8.80;99.90;;;;;;5109478;28;20556;-77
2021/12/14 08:20:09;;;;;;;34.45;23.50;;;8.90;99.90;;;;;;5111510;28;20036;-78
2021/12/14 08:22:37;;;;;;;35.88;23.27;;;9.00;99.90;;;;;;5108377;28;20071;-78
2021/12/14 08:25:10;;;;;;;36.90;23.33;;;8.90;99.90;;;;;;5093844;28;20475;-78
2021/12/14 08:27:37;;;;;;;37.30;24.35;;;8.90;99.90;;;;;;5093130;28;20065;-78
2021/12/14 08:30:07;;;;;;;38.42;23.30;;;9.00;99.90;;;;;;5110464;28;20039;-77
2021/12/14 08:32:36;;;;;;;39.50;25.25;;;8.80;99.90;;;;;;5107622;28;20031;-77
2021/12/14 08:35:10;;;;;;;34.42;21.73;;;8.80;99.90;;;;;;5093009;28;20059;-77
2021/12/14 08:37:43;;;;;;;36.95;22.55;;;9.10;99.90;;;;;;5093129;28;20127;-77
2021/12/14 08:40:19;;;;;;;38.33;24.35;;;9.00;99.90;;;;;;5110284;28;20043;-78
2021/12/14 08:43:19;;;;;;;36.22;21.70;;;9.10;99.90;;;;;;5140612;27;20500;-78
2021/12/14 08:45:47;;;;;;;36.63;22.95;;;9.10;99.90;;;;;;5109278;28;20047;-77
2021/12/14 08:48:23;;;;;;;36.45;23.73;;;9.10;99.90;;;;;;5111461;28;20027;-77
2021/12/14 08:50:56;;;;;;;40.10;26.00;;;9.10;99.90;;;;;;5090130;28;20077;-78
2021/12/14 08:53:25;;;;;;;40.28;22.98;;;9.00;99.90;;;;;;5134845;27;20036;-77
2021/12/14 08:55:55;;;;;;;37.70;23.92;;;9.00;99.90;;;;;;5113767;28;20119;-78
2021/12/14 08:58:20;;;;;;;39.92;25.50;;;8.90;99.90;;;;;;5113080;28;20044;-77
2021/12/14 09:00:54;;;;;;;39.67;25.88;;;9.00;99.90;;;;;;5113796;28;20093;-78
2021/12/14 09:03:31;;;;;;;39.85;25.92;;;9.00;99.90;;;;;;5114710;28;20047;-77
2021/12/14 09:06:00;;;;;;;39.63;25.55;;;9.10;99.90;;;;;;5095190;28;20077;-78
2021/12/14 09:08:26;;;;;;;37.42;22.80;;;9.10;99.90;;;;;;5113255;28;20163;-77
2021/12/14 09:10:53;;;;;;;34.55;22.63;;;9.10;99.90;;;;;;5095772;28;20048;-78
2021/12/14 09:13:19;;;;;;;40.50;25.75;;;9.10;99.90;;;;;;5111051;28;20511;-78
2021/12/14 09:16:02;;;;;;;39.05;24.30;;;9.10;99.90;;;;;;5112955;28;20076;-78
2021/12/14 09:18:30;;;;;;;;;;;9.20;99.90;;;;;;5096178;28;20507;-78
2021/12/14 09:21:00;;;;;;;37.08;21.73;;;9.20;99.90;;;;;;5098148;28;20339;-77
2021/12/14 09:23:31;;;;;;;40.40;26.83;;;9.10;99.90;;;;;;5094083;28;20044;-77
2021/12/14 09:25:57;;;;;;;39.38;27.02;;;9.00;99.90;;;;;;5129954;27;20501;-77
2021/12/14 09:28:24;;;;;;;45.03;28.42;;;9.10;99.90;;;;;;5130720;27;20036;-77
2021/12/14 09:30:57;;;;;;;42.13;26.23;;;9.00;99.90;;;;;;5109658;28;20032;-77
2021/12/14 09:33:25;;;;;;;43.25;27.27;;;9.00;99.90;;;;;;5096904;28;20118;-78
2021/12/14 09:35:55;;;;;;;42.13;26.73;;;9.10;99.90;;;;;;5093159;28;20062;-78
2021/12/14 09:38:30;;;;;;;43.20;27.05;;;9.20;99.90;;;;;;5096942;28;20165;-78
2021/12/14 09:40:58;;;;;;;39.25;26.08;;;9.00;99.90;;;;;;5094961;28;20095;-78
2021/12/14 09:43:24;;;;;;;41.60;27.05;;;9.20;99.90;;;;;;5094349;28;20040;-77
2021/12/14 09:45:55;;;;;;;42.65;27.60;;;9.20;99.90;;;;;;5113164;28;20417;-78
2021/12/14 09:48:28;;;;;;;43.05;29.15;;;9.10;99.90;;;;;;5096822;28;20479;-77
2021/12/14 09:50:56;;;;;;;46.17;28.23;;;9.10;99.90;;;;;;5112334;28;20032;-77
2021/12/14 09:53:26;;;;;;;34.65;20.42;;;9.00;99.90;;;;;;5114255;28;20036;-78
2021/12/14 09:55:56;;;;;;;40.63;25.92;;;9.20;99.90;;;;;;5095987;28;20449;-78
2021/12/14 09:58:27;;;;;;;38.35;24.35;;;9.20;99.90;;;;;;5113585;28;20526;-77
2021/12/14 10:01:10;;;;;;;39.92;24.30;;;9.20;99.90;;;;;;5094650;28;20471;-78
2021/12/14 10:03:38;;;;;;;38.30;27.02;;;9.30;99.90;;;;;;5114089;28;20148;-78
2021/12/14 10:06:07;;;;;;;40.50;24.73;;;9.20;99.90;;;;;;5112032;28;20032;-78
2021/12/14 10:08:38;;;;;;;36.45;24.35;;;9.20;99.90;;;;;;5112517;28;20055;-78
2021/12/14 10:11:14;;;;;;;36.38;21.63;;;9.30;99.90;;;;;;5112337;28;20042;-77
2021/12/14 10:13:44;;;;;;;39.10;24.30;;;9.30;99.90;;;;;;5112482;28;20035;-77
2021/12/14 10:16:11;;;;;;;41.63;27.48;;;9.20;99.90;;;;;;5095394;28;20123;-78
2021/12/14 10:18:42;;;;;;;33.92;19.52;;;9.20;99.90;;;;;;5096590;28;20035;-78
2021/12/14 10:21:15;;;;;;;34.25;22.05;;;9.30;99.90;;;;;;5096498;28;20042;-78
2021/12/14 10:23:42;;;;;;;32.63;21.35;;;9.30;99.90;;;;;;5095922;28;20032;-78
2021/12/14 10:26:09;;;;;;;35.15;23.08;;;9.40;99.90;;;;;;5111498;28;20506;-78
2021/12/14 10:28:38;;;;;;;33.72;22.02;;;9.30;99.90;;;;;;5094703;28;20035;-77
2021/12/14 10:31:10;;;;;;;31.42;18.85;;;9.30;99.90;;;;;;5094292;28;20471;-77
2021/12/14 10:33:39;;;;;;;34.75;22.20;;;9.30;99.90;;;;;;5094467;28;20040;-78
2021/12/14 10:36:25;;;;;;;34.60;21.38;;;9.10;99.90;;;;;;5109511;28;20118;-78
2021/12/14 10:44:15;;;;;;;38.65;24.48;;;9.20;99.90;;;;;;5109783;28;20039;-78
2021/12/14 10:46:46;;;;;;;37.30;25.60;;;9.30;99.90;;;;;;5111822;28;20074;-78
2021/12/14 10:49:14;;;;;;;34.97;21.23;;;9.20;99.90;;;;;;5096093;28;20039;-77
2021/12/14 10:51:43;;;;;;;37.97;24.95;;;9.30;99.90;;;;;;5091578;28;20065;-78
2021/12/14 10:54:13;;;;;;;35.20;22.40;;;9.20;99.90;;;;;;5108210;28;20492;-78
2021/12/14 10:56:48;;;;;;;33.65;22.55;;;9.20;99.90;;;;;;5111706;28;20475;-78
2021/12/14 10:59:17;;;;;;;32.53;20.52;;;9.20;99.90;;;;;;5112493;28;20480;-77
2021/12/14 11:01:49;;;;;;;33.65;21.98;;;9.30;99.90;;;;;;5110869;28;20074;-77
2021/12/14 11:04:40;;;;;;;30.35;17.40;;;9.40;99.90;;;;;;5110808;28;20472;-77
2021/12/14 11:07:18;;;;;;;26.98;16.50;;;9.50;99.90;;;;;;5085498;28;20047;-78
2021/12/14 11:09:47;;;;;;;29.45;18.70;;;9.50;99.90;;;;;;5110943;28;20567;-77
2021/12/14 11:12:29;;;;;;;28.13;18.23;;;9.50;99.90;;;;;;5110578;28;20047;-77
2021/12/14 11:14:59;;;;;;;27.40;17.00;;;9.40;99.90;;;;;;5092278;28;20051;-78
2021/12/14 11:20:28;;;;;;;32.22;20.60;;;9.40;99.90;;;;;;5111577;28;20039;-77
2021/12/14 11:23:06;;;;;;;30.50;20.20;;;9.40;99.90;;;;;;5109883;28;20027;-77
2021/12/14 11:25:34;;;;;;;30.45;20.55;;;9.40;99.90;;;;;;5093981;28;20035;-77
2021/12/14 11:28:08;;;;;;;28.85;16.63;;;9.30;99.90;;;;;;5110070;28;20048;-77
2021/12/14 11:30:52;;;;;;;23.70;13.57;;;9.30;99.90;;;;;;5088586;28;20044;-77
2021/12/14 11:33:34;;;;;;;28.88;18.23;;;9.50;99.90;;;;;;5092147;28;20411;-77
2021/12/14 11:36:10;;;;;;;25.33;15.38;;;9.50;99.90;;;;;;5107589;28;20396;-77
2021/12/14 11:38:48;;;;;;;31.30;18.73;;;9.50;99.90;;;;;;5103878;28;20032;-77
2021/12/14 11:41:28;;;;;;;27.60;16.50;;;9.40;99.90;;;;;;5093905;28;20047;-77
2021/12/14 11:44:04;;;;;;;29.48;16.90;;;9.50;99.90;;;;;;5109345;28;20031;-77
2021/12/14 11:46:32;;;;;;;32.85;18.13;;;9.50;99.90;;;;;;5089760;28;20063;-77
2021/12/14 11:49:03;;;;;;;29.23;19.15;;;9.40;99.90;;;;;;5092882;28;20040;-77
2021/12/14 11:51:31;;;;;;;30.23;20.98;;;9.40;99.90;;;;;;5091199;28;20153;-77
2021/12/14 11:54:00;;;;;;;27.10;16.13;;;9.40;99.90;;;;;;5136797;27;20070;-77
2021/12/14 11:56:28;;;;;;;31.00;19.50;;;9.50;99.90;;;;;;5145651;27;20049;-77
2021/12/14 11:59:03;;;;;;;27.15;16.02;;;9.50;99.90;;;;;;5110964;28;20035;-77
2021/12/14 12:01:41;;;;;;;27.42;17.65;;;9.60;99.90;;;;;;5127674;27;20040;-77
2021/12/14 12:04:12;;;;;;;31.20;20.15;;;9.60;99.90;;;;;;5093113;28;20514;-77
2021/12/14 12:09:37;;;;;;;28.73;17.97;;;9.50;99.90;;;;;;5110831;28;20293;-78
2021/12/14 12:12:03;;;;;;;33.22;20.50;;;9.50;99.90;;;;;;5090908;28;20631;-77
2021/12/14 12:15:05;;;;;;;30.95;20.05;;;9.30;99.90;;;;;;5110826;28;20047;-77
2021/12/14 12:17:45;;;;;;;29.70;18.35;;;9.30;99.90;;;;;;5106683;28;20461;-77
2021/12/14 12:20:14;;;;;;;30.10;17.98;;;9.40;99.90;;;;;;5093964;28;20069;-77
2021/12/14 12:23:00;;;;;;;31.20;17.25;;;9.40;99.90;;;;;;5088941;28;20038;-78
2021/12/14 12:25:34;;;;;;;34.40;20.35;;;9.30;99.90;;;;;;5091017;28;20050;-77
2021/12/14 12:28:12;;;;;;;30.98;19.10;;;9.30;99.90;;;;;;5096018;28;20537;-77
2021/12/14 12:30:48;;;;;;;35.10;20.75;;;9.30;99.90;;;;;;5112169;28;20118;-77
2021/12/14 12:33:14;;;;;;;33.05;20.00;;;9.30;99.90;;;;;;5093234;28;20031;-78
2021/12/14 12:36:17;;;;;;;32.28;21.02;;;9.30;99.90;;;;;;5098486;28;20071;-77
2021/12/14 12:38:53;;;;;;;31.45;18.52;;;9.30;99.90;;;;;;5110120;28;20098;-78
2021/12/14 12:41:40;;;;;;;35.33;20.52;;;9.40;99.90;;;;;;5114658;28;20095;-78
2021/12/14 12:44:09;;;;;;;31.48;19.00;;;9.30;99.90;;;;;;5108930;28;20510;-78
2021/12/14 12:46:49;;;;;;;33.33;19.40;;;9.40;99.90;;;;;;5113539;28;20050;-78
2021/12/14 12:49:27;;;;;;;28.60;16.38;;;9.30;99.90;;;;;;5094898;28;20035;-78
2021/12/14 12:52:01;;;;;;;31.75;19.02;;;9.40;99.90;;;;;;5114282;28;20036;-78
2021/12/14 12:54:49;;;;;;;31.50;19.73;;;9.50;99.90;;;;;;5096457;28;20088;-77
2021/12/14 12:57:28;;;;;;;29.35;17.10;;;9.40;99.90;;;;;;5110380;28;20032;-78
2021/12/14 13:00:24;;;;;;;27.73;14.57;;;9.40;99.90;;;;;;5114489;28;20036;-77
2021/12/14 13:02:50;;;;;;;33.80;20.05;;;9.50;99.90;;;;;;5112870;28;20051;-77
2021/12/14 13:05:21;;;;;;;37.10;20.00;;;9.50;99.90;;;;;;5094763;28;20034;-77
2021/12/14 13:08:09;;;;;;;34.35;20.60;;;9.40;99.90;;;;;;5096233;28;20082;-78
2021/12/14 13:11:03;;;;;;;36.70;19.45;;;9.40;99.90;;;;;;5108708;28;20032;-77
2021/12/14 13:13:41;;;;;;;35.75;20.30;;;9.40;99.90;;;;;;5109153;28;20055;-78
2021/12/14 13:16:20;;;;;;;34.45;18.35;;;9.30;99.90;;;;;;5094751;28;20036;-77
2021/12/14 13:18:57;;;;;;;35.28;18.90;;;9.40;99.90;;;;;;5094876;28;20395;-77
2021/12/14 13:21:42;;;;;;;34.83;17.77;;;9.30;99.90;;;;;;5109808;28;20032;-78
2021/12/14 13:24:25;;;;;;;32.58;18.98;;;9.40;99.90;;;;;;5113426;28;20031;-77
2021/12/14 13:27:02;;;;;;;32.97;18.45;;;9.50;99.90;;;;;;5092508;28;20040;-78
2021/12/14 13:29:38;;;;;;;30.98;19.05;;;9.50;99.90;;;;;;5096307;28;20495;-77
2021/12/14 13:32:15;;;;;;;31.90;17.67;;;9.50;99.90;;;;;;5096476;28;20035;-78
2021/12/14 13:35:18;;;;;;;31.27;17.95;;;9.50;99.90;;;;;;5094335;28;20066;-77
2021/12/14 13:37:51;;;;;;;27.80;17.35;;;9.50;99.90;;;;;;5095085;28;20055;-77
2021/12/14 13:40:33;;;;;;;30.50;17.52;;;9.50;99.90;;;;;;5111718;28;20081;-77
2021/12/14 13:43:22;;;;;;;32.53;18.60;;;9.60;99.90;;;;;;5112099;28;20062;-78
2021/12/14 13:46:01;;;;;;;32.33;19.00;;;9.50;99.90;;;;;;5095722;28;20074;-77